Trina Smith — WDE3530 — position and weather

sailwx.info

Track history (hours):
 
Tides and Currents Weather Stations Pressure Air Temp Water Temp Dewpoint Dewpoint Depression Visibility Wind Speed Wind Dir Waves Ship Positions

Trina Smith

Owner: Florida Marine Transporters, Inc., Mandeville, LA. More information available from US FCC via Universal Licensing System and Coast Guard Vessel Documentation Center.

Last reported at 2017-Sep-06 12:40 UTC. Time now 2017-Sep-23 16:37 UTC.
Position N 29°26' W 094°50'.
Warning: this ship's position is 17 days out of date.

Length 27 m; draft 2.9 m.

Type: Towing. MMSI: 367340460.

Date/timePositionNaut miles runAvg speedWind from/ knotsBaromVisibWave heightAir tempDewpointWater temp
2017-Sep-06 12:40N 29°26' W 094°50'1 5.9
2017-Sep-06 12:26N 29°28' W 094°51'2 5.8
2017-Sep-06 12:00N 29°30' W 094°52'3 5.9
2017-Sep-06 11:30N 29°32' W 094°54'3 6.1
2017-Sep-06 11:00N 29°35' W 094°56'3 6.2
2017-Sep-06 10:30N 29°38' W 094°58'3 6.7
2017-Sep-06 10:00N 29°41' W 094°59'3 6.0
2017-Sep-06 09:30N 29°43' W 095°01'3 5.8
2017-Sep-06 08:59N 29°45' W 095°04'1 2.8
2017-Sep-06 08:30N 29°46' W 095°05'1 1.8
2017-Sep-06 07:43N 29°47' W 095°04'0 0.3
2017-Sep-06 07:30N 29°47' W 095°04'0 0.1
2017-Sep-06 07:00N 29°47' W 095°04'0 0.0
2017-Sep-06 06:30N 29°47' W 095°04'2 3.5
2017-Sep-06 06:00N 29°46' W 095°05'1 1.2
2017-Sep-06 05:10N 29°46' W 095°06'1 0.0
2017-Sep-05 12:52N 29°46' W 095°06'2 6.0
2017-Sep-05 12:30N 29°47' W 095°04'0 0.2
2017-Sep-05 12:00N 29°47' W 095°04'0 0.0
2017-Sep-05 11:30N 29°47' W 095°04'1 1.1
2017-Sep-05 11:00N 29°47' W 095°04'3 6.1
2017-Sep-05 10:30N 29°44' W 095°07'2 0.2
2017-Sep-04 22:31N 29°44' W 095°09'2 3.0
2017-Sep-04 21:55N 29°44' W 095°07'5 5.5
2017-Sep-04 21:06N 29°47' W 095°04'0 0.2
2017-Sep-04 21:01N 29°47' W 095°04'0 0.1
2017-Sep-04 20:27N 29°47' W 095°04'0 0.2
2017-Sep-04 18:49N 29°47' W 095°04'2 5.6
2017-Sep-04 18:30N 29°46' W 095°05'1 0.0
2017-Sep-03 20:09N 29°46' W 095°06'1 0.1
2017-Sep-03 15:08N 29°46' W 095°06'0 3.4
2017-Sep-03 15:00N 29°45' W 095°06'1 0.4
2017-Sep-03 13:22N 29°46' W 095°06'1 0.0
2017-Sep-03 00:53N 29°46' W 095°06'0 0.9
2017-Sep-03 00:30N 29°47' W 095°06'0 0.1
2017-Sep-02 23:59N 29°46' W 095°06'0 0.3
2017-Sep-02 23:15N 29°47' W 095°06'1 1.1
2017-Sep-02 22:45N 29°46' W 095°06'1 2.0
2017-Sep-02 22:30N 29°47' W 095°06'0 0.9
2017-Sep-02 22:01N 29°46' W 095°06'0 0.0
2017-Sep-02 13:44N 29°46' W 095°06'0 0.2
2017-Sep-02 13:17N 29°46' W 095°06'0 1.1
2017-Sep-02 12:57N 29°47' W 095°06'0 0.0
2017-Sep-01 18:13N 29°46' W 095°06'0 0.2
2017-Sep-01 17:46N 29°46' W 095°06'0 2.0
2017-Sep-01 17:31N 29°47' W 095°06'0 0.5
2017-Sep-01 16:46N 29°46' W 095°06'1 0.0
2017-Aug-30 22:58N 29°46' W 095°06'1 2.0
2017-Aug-30 22:28N 29°47' W 095°06'0 0.0
2017-Aug-30 22:00N 29°47' W 095°06'1 0.2
2017-Aug-30 15:44N 29°46' W 095°06'0 0.0
2017-Aug-29 20:28N 29°46' W 095°06'0 0.0
2017-Aug-29 19:57N 29°46' W 095°06'0 0.3
2017-Aug-29 19:30N 29°46' W 095°06'0 0.3
2017-Aug-29 18:39N 29°46' W 095°06'0 0.2
2017-Aug-29 18:30N 29°46' W 095°06'0 0.9
2017-Aug-29 17:58N 29°47' W 095°06'0 0.1
2017-Aug-29 17:29N 29°47' W 095°06'1 0.2
2017-Aug-29 13:19N 29°46' W 095°06'0 1.0
2017-Aug-29 13:00N 29°46' W 095°06'0 0.4
2017-Aug-29 12:29N 29°47' W 095°06'0 0.0
2017-Aug-29 11:59N 29°47' W 095°06'0 0.0
2017-Aug-28 18:33N 29°46' W 095°06'0 0.0
2017-Aug-28 17:04N 29°46' W 095°06'0 0.0
2017-Aug-28 16:48N 29°46' W 095°06'0 0.0
2017-Aug-28 09:02N 29°46' W 095°06'0 0.0
2017-Aug-28 08:41N 29°46' W 095°06'0 0.0
2017-Aug-28 08:27N 29°46' W 095°06'0 0.0
2017-Aug-28 07:51N 29°46' W 095°06'0 0.0
2017-Aug-28 07:17N 29°46' W 095°06'0 0.0
2017-Aug-28 06:49N 29°46' W 095°06'0 0.0
2017-Aug-28 06:16N 29°46' W 095°06'0 0.0
2017-Aug-28 05:47N 29°46' W 095°06'0 0.0
2017-Aug-28 05:29N 29°46' W 095°06'0 0.0
2017-Aug-28 05:00N 29°46' W 095°06'0 0.0
2017-Aug-28 04:27N 29°46' W 095°06'0 0.0
2017-Aug-27 19:36N 29°46' W 095°06'0 0.0
2017-Aug-27 19:23N 29°46' W 095°06'0 0.0
2017-Aug-27 18:56N 29°46' W 095°06'0 0.0
2017-Aug-27 18:29N 29°46' W 095°06'0 0.0
2017-Aug-27 17:06N 29°46' W 095°06'0 0.0
2017-Aug-27 16:47N 29°46' W 095°06'0 0.0
2017-Aug-27 16:27N 29°46' W 095°06'0 0.0
2017-Aug-27 15:55N 29°46' W 095°06'0 0.0
2017-Aug-27 15:28N 29°46' W 095°06'0 0.0
2017-Aug-27 13:26N 29°46' W 095°06'0 0.0
2017-Aug-27 12:53N 29°46' W 095°06'  
Track history (hours):
 
Tides and Currents Weather Stations Pressure Air Temp Water Temp Dewpoint Dewpoint Depression Visibility Wind Speed Wind Dir Waves Ship Positions

Trina Smith

Owner: Florida Marine Transporters, Inc., Mandeville, LA. More information available from US FCC via Universal Licensing System and Coast Guard Vessel Documentation Center.

Last reported at 2017-Sep-06 12:40 UTC. Time now 2017-Sep-23 16:37 UTC.
Position N 29°26' W 094°50'.
Warning: this ship's position is 17 days out of date.

Length 27 m; draft 2.9 m.

Type: Towing. MMSI: 367340460.

Date/timePositionNaut miles runAvg speedWind from/ knotsBaromVisibWave heightAir tempDewpointWater temp
2017-Sep-06 12:40N 29°26' W 094°50'1 5.9
2017-Sep-06 12:26N 29°28' W 094°51'2 5.8
2017-Sep-06 12:00N 29°30' W 094°52'3 5.9
2017-Sep-06 11:30N 29°32' W 094°54'3 6.1
2017-Sep-06 11:00N 29°35' W 094°56'3 6.2
2017-Sep-06 10:30N 29°38' W 094°58'3 6.7
2017-Sep-06 10:00N 29°41' W 094°59'3 6.0
2017-Sep-06 09:30N 29°43' W 095°01'3 5.8
2017-Sep-06 08:59N 29°45' W 095°04'1 2.8
2017-Sep-06 08:30N 29°46' W 095°05'1 1.8
2017-Sep-06 07:43N 29°47' W 095°04'0 0.3
2017-Sep-06 07:30N 29°47' W 095°04'0 0.1
2017-Sep-06 07:00N 29°47' W 095°04'0 0.0
2017-Sep-06 06:30N 29°47' W 095°04'2 3.5
2017-Sep-06 06:00N 29°46' W 095°05'1 1.2
2017-Sep-06 05:10N 29°46' W 095°06'1 0.0
2017-Sep-05 12:52N 29°46' W 095°06'2 6.0
2017-Sep-05 12:30N 29°47' W 095°04'0 0.2
2017-Sep-05 12:00N 29°47' W 095°04'0 0.0
2017-Sep-05 11:30N 29°47' W 095°04'1 1.1
2017-Sep-05 11:00N 29°47' W 095°04'3 6.1
2017-Sep-05 10:30N 29°44' W 095°07'2 0.2
2017-Sep-04 22:31N 29°44' W 095°09'2 3.0
2017-Sep-04 21:55N 29°44' W 095°07'5 5.5
2017-Sep-04 21:06N 29°47' W 095°04'0 0.2
2017-Sep-04 21:01N 29°47' W 095°04'0 0.1
2017-Sep-04 20:27N 29°47' W 095°04'0 0.2
2017-Sep-04 18:49N 29°47' W 095°04'2 5.6
2017-Sep-04 18:30N 29°46' W 095°05'1 0.0
2017-Sep-03 20:09N 29°46' W 095°06'1 0.1
2017-Sep-03 15:08N 29°46' W 095°06'0 3.4
2017-Sep-03 15:00N 29°45' W 095°06'1 0.4
2017-Sep-03 13:22N 29°46' W 095°06'1 0.0
2017-Sep-03 00:53N 29°46' W 095°06'0 0.9
2017-Sep-03 00:30N 29°47' W 095°06'0 0.1
2017-Sep-02 23:59N 29°46' W 095°06'0 0.3
2017-Sep-02 23:15N 29°47' W 095°06'1 1.1
2017-Sep-02 22:45N 29°46' W 095°06'1 2.0
2017-Sep-02 22:30N 29°47' W 095°06'0 0.9
2017-Sep-02 22:01N 29°46' W 095°06'0 0.0
2017-Sep-02 13:44N 29°46' W 095°06'0 0.2
2017-Sep-02 13:17N 29°46' W 095°06'0 1.1
2017-Sep-02 12:57N 29°47' W 095°06'0 0.0
2017-Sep-01 18:13N 29°46' W 095°06'0 0.2
2017-Sep-01 17:46N 29°46' W 095°06'0 2.0
2017-Sep-01 17:31N 29°47' W 095°06'0 0.5
2017-Sep-01 16:46N 29°46' W 095°06'1 0.0
2017-Aug-30 22:58N 29°46' W 095°06'1 2.0
2017-Aug-30 22:28N 29°47' W 095°06'0 0.0
2017-Aug-30 22:00N 29°47' W 095°06'1 0.2
2017-Aug-30 15:44N 29°46' W 095°06'0 0.0
2017-Aug-29 20:28N 29°46' W 095°06'0 0.0
2017-Aug-29 19:57N 29°46' W 095°06'0 0.3
2017-Aug-29 19:30N 29°46' W 095°06'0 0.3
2017-Aug-29 18:39N 29°46' W 095°06'0 0.2
2017-Aug-29 18:30N 29°46' W 095°06'0 0.9
2017-Aug-29 17:58N 29°47' W 095°06'0 0.1
2017-Aug-29 17:29N 29°47' W 095°06'1 0.2
2017-Aug-29 13:19N 29°46' W 095°06'0 1.0
2017-Aug-29 13:00N 29°46' W 095°06'0 0.4
2017-Aug-29 12:29N 29°47' W 095°06'0 0.0
2017-Aug-29 11:59N 29°47' W 095°06'0 0.0
2017-Aug-28 18:33N 29°46' W 095°06'0 0.0
2017-Aug-28 17:04N 29°46' W 095°06'0 0.0
2017-Aug-28 16:48N 29°46' W 095°06'0 0.0
2017-Aug-28 09:02N 29°46' W 095°06'0 0.0
2017-Aug-28 08:41N 29°46' W 095°06'0 0.0
2017-Aug-28 08:27N 29°46' W 095°06'0 0.0
2017-Aug-28 07:51N 29°46' W 095°06'0 0.0
2017-Aug-28 07:17N 29°46' W 095°06'0 0.0
2017-Aug-28 06:49N 29°46' W 095°06'0 0.0
2017-Aug-28 06:16N 29°46' W 095°06'0 0.0
2017-Aug-28 05:47N 29°46' W 095°06'0 0.0
2017-Aug-28 05:29N 29°46' W 095°06'0 0.0
2017-Aug-28 05:00N 29°46' W 095°06'0 0.0
2017-Aug-28 04:27N 29°46' W 095°06'0 0.0
2017-Aug-27 19:36N 29°46' W 095°06'0 0.0
2017-Aug-27 19:23N 29°46' W 095°06'0 0.0
2017-Aug-27 18:56N 29°46' W 095°06'0 0.0
2017-Aug-27 18:29N 29°46' W 095°06'0 0.0
2017-Aug-27 17:06N 29°46' W 095°06'0 0.0
2017-Aug-27 16:47N 29°46' W 095°06'0 0.0
2017-Aug-27 16:27N 29°46' W 095°06'0 0.0
2017-Aug-27 15:55N 29°46' W 095°06'0 0.0
2017-Aug-27 15:28N 29°46' W 095°06'0 0.0
2017-Aug-27 13:26N 29°46' W 095°06'0 0.0
2017-Aug-27 12:53N 29°46' W 095°06'  

Dump ship's entire track history